Time;durP1;ratioP1;P1;durP2;ratioP2;P2;SDS_P1;SDS_P2;PMS_P1;PMS_P2;Temp;Humidity;BMP_temperature;BMP_pressure;BME280_temperature;BME280_humidity;BME280_pressure;Samples;Min_cycle;Max_cycle;Signal;HPM_P1;HPM_P2
2021/06/28 00:00:36;;;;;;;;;;;19.70;99.90;;;;;;4935647;29;19955;-79
2021/06/28 00:03:05;;;;;;;;;;;19.70;99.90;;;;;;4919626;29;20298;-79
2021/06/28 00:05:34;;;;;;;;;;;19.70;99.90;;;;;;4935306;29;19934;-79
2021/06/28 00:08:04;;;;;;;;;;;19.80;99.90;;;;;;4935153;29;19982;-79
2021/06/28 00:10:34;;;;;;;;;;;19.80;99.90;;;;;;4919912;29;20026;-79
2021/06/28 00:13:02;;;;;;;;;;;19.90;99.90;;;;;;4919294;29;19933;-78
2021/06/28 00:15:31;;;;;;;;;;;19.90;99.90;;;;;;4935021;29;19930;-79
2021/06/28 00:17:59;;;;;;;;;;;20.00;99.90;;;;;;4918831;29;19927;-79
2021/06/28 00:20:28;;;;;;;;;;;20.00;99.90;;;;;;4934891;29;20402;-79
2021/06/28 00:22:55;;;;;;;;;;;20.00;99.90;;;;;;4918914;29;19926;-78
2021/06/28 00:25:23;;;;;;;;;;;20.00;99.90;;;;;;4934938;29;19927;-79
2021/06/28 00:27:51;;;;;;;;;;;20.00;99.90;;;;;;4934574;29;19926;-79
2021/06/28 00:30:19;;;;;;;;;;;20.10;99.90;;;;;;4934727;29;19927;-79
2021/06/28 00:32:48;;;;;;;;;;;20.10;99.90;;;;;;4934707;29;19938;-78
2021/06/28 00:35:18;;;;;;;;;;;20.10;99.90;;;;;;4934721;29;20413;-79
2021/06/28 00:37:46;;;;;;;;;;;20.10;99.90;;;;;;4918996;29;19927;-79
2021/06/28 00:40:14;;;;;;;;;;;20.00;99.90;;;;;;4934629;29;19927;-78
2021/06/28 00:42:42;;;;;;;;;;;19.80;99.90;;;;;;4918365;29;19931;-79
2021/06/28 00:45:25;;;;;;;;;;;19.60;99.90;;;;;;4934461;29;19926;-79
2021/06/28 00:47:55;;;;;;;;;;;19.40;99.90;;;;;;4934463;29;20462;-78
2021/06/28 00:50:28;;;;;;;;;;;19.30;99.90;;;;;;4919328;29;19930;-79
2021/06/28 00:53:03;;;;;;;;;;;19.10;99.90;;;;;;4919197;29;19927;-79
2021/06/28 00:55:36;;;;;;;;;;;19.00;99.90;;;;;;4934279;29;19927;-78
2021/06/28 00:58:09;;;;;;;;;;;18.80;99.90;;;;;;4918984;29;19986;-78
2021/06/28 01:00:37;;;;;;;;;;;18.70;99.90;;;;;;4934040;29;19927;-78
2021/06/28 01:03:10;;;;;;;;;;;18.60;99.90;;;;;;4918554;29;19930;-79
2021/06/28 01:05:38;;;;;;;;;;;18.60;99.90;;;;;;4933870;29;19946;-78
2021/06/28 01:08:06;;;;;;;;;;;18.60;99.90;;;;;;4933943;29;19926;-79
2021/06/28 01:10:37;;;;;;;;;;;18.60;99.90;;;;;;4933562;29;20362;-79
2021/06/28 01:13:05;;;;;;;;;;;18.60;99.90;;;;;;4933412;29;19927;-79
2021/06/28 01:15:38;;;;;;;;;;;18.70;99.90;;;;;;4918626;29;19927;-79
2021/06/28 01:18:10;;;;;;;;;;;18.80;99.90;;;;;;4918512;29;20374;-78
2021/06/28 01:20:43;;;;;;;;;;;18.90;99.90;;;;;;4918928;29;20330;-79
2021/06/28 01:23:24;;;;;;;;;;;19.00;99.90;;;;;;4933515;29;20386;-79
2021/06/28 01:25:54;;;;;;;;;;;19.00;99.90;;;;;;4917756;29;19927;-79
2021/06/28 01:28:22;;;;;;;;;;;19.10;99.90;;;;;;4933630;29;19978;-79
2021/06/28 01:30:51;;;;;;;;;;;19.10;99.90;;;;;;4937642;29;19935;-79
2021/06/28 01:33:19;;;;;;;;;;;19.20;99.90;;;;;;4937804;29;20017;-79
2021/06/28 01:35:47;;;;;;;;;;;19.20;99.90;;;;;;4937886;29;19935;-79
2021/06/28 01:38:15;;;;;;;;;;;19.20;99.90;;;;;;4922530;29;19951;-78
2021/06/28 01:40:42;;;;;;;;;;;19.30;99.90;;;;;;4937452;29;19962;-78
2021/06/28 01:43:10;;;;;;;;;;;19.30;99.90;;;;;;4920939;29;19927;-79
2021/06/28 01:45:38;;;;;;;;;;;19.30;99.90;;;;;;4937037;29;20283;-78
2021/06/28 01:48:06;;;;;;;;;;;19.40;99.90;;;;;;4921422;29;19954;-79
2021/06/28 01:50:39;;;;;;;;;;;19.40;99.90;;;;;;4922205;29;19962;-79
2021/06/28 01:53:08;;;;;;;;;;;19.50;99.90;;;;;;4921578;29;20493;-79
2021/06/28 01:55:40;;;;;;;;;;;19.40;99.90;;;;;;4922659;29;19930;-79
2021/06/28 01:58:09;;;;;;;;;;;19.50;99.90;;;;;;4921913;29;20212;-79
2021/06/28 02:00:39;;;;;;;;;;;19.50;99.90;;;;;;4937592;29;20021;-79
2021/06/28 02:03:13;;;;;;;;;;;19.40;99.90;;;;;;4937712;29;20302;-78
2021/06/28 02:05:40;;;;;;;;;;;19.40;99.90;;;;;;4937552;29;20432;-79
2021/06/28 02:08:10;;;;;;;;;;;19.40;99.90;;;;;;4937196;29;20413;-78
2021/06/28 02:10:39;;;;;;;;;;;19.40;99.90;;;;;;4937256;29;19927;-79
2021/06/28 02:13:12;;;;;;;;;;;19.50;99.90;;;;;;4937118;29;20022;-79
2021/06/28 02:15:40;;;;;;;;;;;19.50;99.90;;;;;;4937453;29;19937;-79
2021/06/28 02:18:08;;;;;;;;;;;19.50;99.90;;;;;;4921719;29;19955;-79
2021/06/28 02:20:36;;;;;;;;;;;19.50;99.90;;;;;;4937331;29;19927;-79
2021/06/28 02:23:19;;;;;;;;;;;19.40;99.90;;;;;;4936796;29;19926;-79
2021/06/28 02:25:55;;;;;;;;;;;19.30;99.90;;;;;;4936755;29;19933;-79
2021/06/28 02:28:23;;;;;;;;;;;19.20;99.90;;;;;;4921499;29;20017;-79
2021/06/28 02:30:52;;;;;;;;;;;19.20;99.90;;;;;;4937011;29;19954;-79
2021/06/28 02:33:25;;;;;;;;;;;19.20;99.90;;;;;;4921903;29;19959;-78
2021/06/28 02:35:52;;;;;;;;;;;19.20;99.90;;;;;;4936751;29;19929;-79
2021/06/28 02:38:21;;;;;;;;;;;19.00;99.90;;;;;;4921359;29;19926;-78
2021/06/28 02:40:49;;;;;;;;;;;19.00;99.90;;;;;;4936475;29;20369;-79
2021/06/28 02:43:17;;;;;;;;;;;18.90;99.90;;;;;;4936766;29;19930;-79
2021/06/28 02:45:50;;;;;;;;;;;18.90;99.90;;;;;;4922083;29;19931;-79
2021/06/28 02:48:18;;;;;;;;;;;18.90;99.90;;;;;;4921011;29;19973;-78
2021/06/28 02:50:45;;;;;;;;;;;19.00;99.90;;;;;;4936508;29;19931;-79
2021/06/28 02:53:18;;;;;;;;;;;19.00;99.90;;;;;;4936217;29;19933;-79
2021/06/28 02:55:47;;;;;;;;;;;19.00;99.90;;;;;;4936569;29;19927;-79
2021/06/28 02:58:16;;;;;;;;;;;18.90;99.90;;;;;;4936578;29;19955;-79
2021/06/28 03:00:43;;;;;;;;;;;18.90;99.90;;;;;;4936780;29;19927;-79
2021/06/28 03:03:11;;;;;;;;;;;18.80;99.90;;;;;;4936235;29;19930;-79
2021/06/28 03:05:39;;;;;;;;;;;18.80;99.90;;;;;;4936655;29;19949;-78
2021/06/28 03:08:07;;;;;;;;;;;18.90;99.90;;;;;;4921339;29;19954;-78
2021/06/28 03:10:39;;;;;;;;;;;18.90;99.90;;;;;;4922233;29;19934;-79
2021/06/28 03:13:11;;;;;;;;;;;18.80;99.90;;;;;;4920918;29;19933;-78
2021/06/28 03:15:39;;;;;;;;;;;18.80;99.90;;;;;;4919929;29;19926;-78
2021/06/28 03:18:07;;;;;;;;;;;18.80;99.90;;;;;;4935606;29;20290;-78
2021/06/28 03:20:34;;;;;;;;;;;18.90;99.90;;;;;;4935855;29;20013;-79
2021/06/28 03:23:01;;;;;;;;;;;18.90;99.90;;;;;;4935776;29;19927;-78
2021/06/28 03:25:30;;;;;;;;;;;18.90;99.90;;;;;;4935271;29;20279;-79
2021/06/28 03:27:57;;;;;;;;;;;19.00;99.90;;;;;;4935893;29;19931;-78
2021/06/28 03:30:25;;;;;;;;;;;19.00;99.90;;;;;;4935791;29;19927;-79
2021/06/28 03:32:53;;;;;;;;;;;19.00;99.90;;;;;;4920011;29;20025;-79
2021/06/28 03:35:20;;;;;;;;;;;19.00;99.90;;;;;;4935626;29;20021;-78
2021/06/28 03:37:48;;;;;;;;;;;19.00;99.90;;;;;;4935534;29;20413;-78
2021/06/28 03:40:16;;;;;;;;;;;19.00;99.90;;;;;;4935750;29;19952;-78
2021/06/28 03:42:44;;;;;;;;;;;18.90;99.90;;;;;;4919570;29;20310;-79
2021/06/28 03:45:12;;;;;;;;;;;18.90;99.90;;;;;;4935572;29;20386;-79
2021/06/28 03:47:45;;;;;;;;;;;18.90;99.90;;;;;;4920255;29;20017;-78
2021/06/28 03:50:17;;;;;;;;;;;18.80;99.90;;;;;;4934743;29;19933;-78
2021/06/28 03:52:50;;;;;;;;;;;18.80;99.90;;;;;;4918864;29;19926;-78
2021/06/28 03:55:18;;;;;;;;;;;18.80;99.90;;;;;;4934590;29;19927;-78
2021/06/28 03:57:51;;;;;;;;;;;18.80;99.90;;;;;;4920025;29;19930;-79
2021/06/28 04:00:21;;;;;;;;;;;18.80;99.90;;;;;;4934122;29;19949;-78
2021/06/28 04:02:49;;;;;;;;;;;18.80;99.90;;;;;;4904793;29;20006;-78
2021/06/28 04:05:21;;;;;;;;;;;18.80;99.90;;;;;;4915373;29;20018;-79
2021/06/28 04:07:49;;;;;;;;;;;18.90;99.90;;;;;;4915669;29;20264;-78
2021/06/28 04:10:18;;;;;;;;;;;18.90;99.90;;;;;;4915445;29;19927;-78
2021/06/28 04:12:51;;;;;;;;;;;18.90;99.90;;;;;;4906279;29;19965;-78
2021/06/28 04:15:19;;;;;;;;;;;18.90;99.90;;;;;;4918349;29;19927;-78
2021/06/28 04:17:54;;;;;;;;;;;18.90;99.90;;;;;;4900033;29;19931;-77
2021/06/28 04:20:26;;;;;;;;;;;18.90;99.90;;;;;;4915257;29;19937;-77
2021/06/28 04:22:53;;;;;;;;;;;18.90;99.90;;;;;;4914963;29;20400;-78
2021/06/28 04:25:25;;;;;;;;;;;18.80;99.90;;;;;;4899941;29;20402;-77
2021/06/28 04:27:53;;;;;;;;;;;18.80;99.90;;;;;;4914771;29;19966;-78
2021/06/28 04:30:25;;;;;;;;;;;18.80;99.90;;;;;;4899971;29;19979;-78
2021/06/28 04:32:58;;;;;;;;;;;18.80;99.90;;;;;;4914934;29;20358;-79
2021/06/28 04:35:26;;;;;;;;;;;18.80;99.90;;;;;;4915365;29;19928;-78
2021/06/28 04:37:55;;;;;;;;;;;18.80;99.90;;;;;;4901047;29;20015;-79
2021/06/28 04:40:24;;;;;;;;;;;18.80;99.90;;;;;;4917850;29;20022;-79
2021/06/28 04:42:52;;;;;;;;;;;18.80;99.90;;;;;;4918179;29;20019;-79
2021/06/28 04:45:19;;;;;;;;;;;18.80;99.90;;;;;;4917504;29;20017;-79
2021/06/28 04:47:47;;;;;;;;;;;18.90;99.90;;;;;;4917590;29;19927;-79
2021/06/28 04:50:15;;;;;;;;;;;18.80;99.90;;;;;;4923375;29;19961;-78
2021/06/28 04:52:42;;;;;;;;;;;18.80;99.90;;;;;;4920601;29;19931;-80
2021/06/28 04:55:14;;;;;;;;;;;18.90;99.90;;;;;;4921778;29;19957;-78
2021/06/28 04:57:43;;;;;;;;;;;18.80;99.90;;;;;;4936866;29;19974;-78
2021/06/28 05:00:19;;;;;;;;;;;18.90;99.90;;;;;;4953223;28;20033;-79
2021/06/28 05:02:46;;;;;;;;;;;18.90;99.90;;;;;;4936414;29;19926;-79
2021/06/28 05:05:14;;;;;;;;;;;19.00;99.90;;;;;;4936160;29;20297;-78
2021/06/28 05:07:42;;;;;;;;;;;18.90;99.90;;;;;;4936329;29;19926;-78
2021/06/28 05:10:10;;;;;;;;;;;18.80;99.90;;;;;;4920417;29;20361;-79
2021/06/28 05:12:37;;;;;;;;;;;18.80;99.90;;;;;;4936047;29;19926;-79
2021/06/28 05:15:10;;;;;;;;;;;18.80;99.90;;;;;;4936090;29;19927;-79
2021/06/28 05:17:38;;;;;;;;;;;18.90;99.90;;;;;;4952156;28;19927;-79
2021/06/28 05:20:07;;;;;;;;;;;18.90;99.90;;;;;;4937260;29;19927;-79
2021/06/28 05:22:34;;;;;;;;;;;19.00;99.90;;;;;;4920127;29;20301;-79
2021/06/28 05:25:03;;;;;;;;;;;19.10;99.90;;;;;;4952722;28;20354;-79
2021/06/28 05:27:30;;;;;;;;;;;19.20;99.90;;;;;;4935930;29;20382;-79
2021/06/28 05:29:58;;;;;;;;;;;19.20;99.90;;;;;;4940095;29;19934;-79
2021/06/28 05:32:26;;;;;;;;;;;19.20;99.90;;;;;;4935144;29;19930;-79
2021/06/28 05:34:54;;;;;;;;;;;19.30;99.90;;;;;;4935189;29;19926;-79
2021/06/28 05:37:22;;;;;;;;;;;19.40;99.90;;;;;;4935239;29;19927;-79
2021/06/28 05:39:49;;;;;;;;;;;19.40;99.90;;;;;;4919630;29;19934;-79
2021/06/28 05:42:22;;;;;;;;;;;19.50;99.90;;;;;;4919649;29;19930;-79
2021/06/28 05:44:51;;;;;;;;;;;19.50;99.90;;;;;;4934778;29;19934;-79
2021/06/28 05:47:22;;;;;;;;;;;19.60;99.90;;;;;;4934534;29;20005;-79
2021/06/28 05:49:50;;;;;;;;;;;19.60;99.90;;;;;;4919186;29;20018;-79
2021/06/28 05:52:21;;;;;;;;;;;19.70;99.90;;;;;;4934372;29;19926;-79
2021/06/28 05:54:49;;;;;;;;;;;19.70;99.90;;;;;;4934984;29;19926;-79
2021/06/28 05:57:24;;;;;;;;;;;19.80;99.90;;;;;;4919747;29;19927;-79
2021/06/28 05:59:54;;;;;;;;;;;19.80;99.90;;;;;;4934816;29;19927;-79
2021/06/28 06:02:27;;;;;;;;;;;19.90;99.90;;;;;;4918663;29;20317;-79
2021/06/28 06:04:54;;;;;;;;;;;19.90;99.90;;;;;;4950796;28;19934;-79
2021/06/28 06:07:22;;;;;;;;;;;20.00;99.90;;;;;;4934518;29;19927;-79
2021/06/28 06:09:59;;;;;;;;;;;20.00;99.90;;;;;;4966597;28;19931;-79
2021/06/28 06:12:28;;;;;;;;;;;20.00;99.90;;;;;;4918320;29;20317;-79
2021/06/28 06:14:55;;;;;;;;;;;20.10;99.90;;;;;;4950871;28;20004;-79
2021/06/28 06:17:22;;;;;;;;;;;20.10;99.90;;;;;;4922141;29;20105;-79
2021/06/28 06:19:52;;;;;;;;;;;20.20;99.90;;;;;;4938033;29;19926;-79
2021/06/28 06:22:20;;;;;;;;;;;20.20;99.90;;;;;;4921985;29;20310;-79
2021/06/28 06:24:48;;;;;;;;;;;20.30;99.90;;;;;;4937697;29;19933;-79
2021/06/28 06:27:18;;;;;;;;;;;20.30;99.90;;;;;;4937642;29;19934;-79
2021/06/28 06:29:46;;;;;;;;;;;20.40;99.90;;;;;;4921994;29;19927;-79
2021/06/28 06:32:13;;;;;;;;;;;20.50;99.90;;;;;;4937965;29;20006;-79
2021/06/28 06:34:40;;;;;;;;;;;20.50;99.90;;;;;;4938792;29;20017;-79
2021/06/28 06:37:11;;;;;;;;;;;20.60;99.90;;;;;;4938624;29;19931;-79
2021/06/28 06:39:38;;;;;;;;;;;20.70;99.90;;;;;;4953735;28;19933;-79
2021/06/28 06:42:10;;;;;;;;;;;20.70;99.90;;;;;;4922461;29;20354;-79
2021/06/28 06:44:38;;;;;;;;;;;20.80;99.90;;;;;;4916663;29;19978;-79
2021/06/28 06:47:08;;;;;;;;;;;20.80;99.90;;;;;;4938345;29;20398;-79
2021/06/28 06:49:36;;;;;;;;;;;20.90;99.90;;;;;;4938433;29;19974;-79
2021/06/28 06:52:04;;;;;;;;;;;21.00;99.90;;;;;;4938149;29;20036;-79
2021/06/28 06:54:33;;;;;;;;;;;21.00;99.90;;;;;;4922856;29;19927;-79
2021/06/28 06:57:02;;;;;;;;;;;21.10;99.90;;;;;;4938630;29;19974;-79
2021/06/28 06:59:29;;;;;;;;;;;21.30;99.90;;;;;;4938199;29;19926;-79
2021/06/28 07:01:57;;;;;;;;;;;21.30;99.90;;;;;;4922558;29;19974;-79
2021/06/28 07:04:25;;;;;;;;;;;21.50;99.90;;;;;;4922108;29;19926;-79
2021/06/28 07:06:52;;;;;;;;;;;21.50;99.90;;;;;;4954171;28;19927;-78
2021/06/28 07:09:20;;;;;;;;;;;21.60;99.90;;;;;;4922531;29;19927;-79
2021/06/28 07:11:47;;;;;;;;;;;21.70;99.90;;;;;;4922540;29;19934;-79
2021/06/28 07:14:15;;;;;;;;;;;21.80;99.90;;;;;;4938002;29;19934;-79
2021/06/28 07:16:48;;;;;;;;;;;21.90;99.90;;;;;;4936979;29;19933;-79
2021/06/28 07:19:15;;;;;;;;;;;22.00;99.90;;;;;;4921276;29;20022;-79
2021/06/28 07:21:42;;;;;;;;;;;22.00;99.90;;;;;;4920728;29;19999;-79
2021/06/28 07:24:09;;;;;;;;;;;22.10;99.90;;;;;;4936086;29;19927;-79
2021/06/28 07:26:41;;;;;;;;;;;22.20;99.90;;;;;;4952542;28;19931;-79
2021/06/28 07:29:13;;;;;;;;;;;22.30;99.90;;;;;;4920943;29;19986;-79
2021/06/28 07:31:40;;;;;;;;;;;22.40;99.90;;;;;;4919849;29;19927;-79
2021/06/28 07:34:12;;;;;;;;;;;22.60;99.90;;;;;;4952588;28;20026;-79
2021/06/28 07:36:44;;;;;;;;;;;22.70;99.90;;;;;;4920914;29;19926;-79
2021/06/28 07:39:15;;;;;;;;;;;22.80;99.90;;;;;;4936140;29;19982;-79
2021/06/28 07:41:42;;;;;;;;;;;22.90;99.90;;;;;;4919816;29;19982;-79
2021/06/28 07:44:14;;;;;;;;;;;23.00;99.90;;;;;;4920426;29;20021;-79
2021/06/28 07:46:41;;;;;;;;;;;23.00;99.90;;;;;;4919851;29;20477;-79
2021/06/28 07:49:12;;;;;;;;;;;23.10;99.90;;;;;;4952398;28;19933;-79
2021/06/28 07:51:39;;;;;;;;;;;23.20;99.90;;;;;;4935267;29;20037;-79
2021/06/28 07:54:14;;;;;;;;;;;23.30;99.90;;;;;;4920247;29;20033;-79
2021/06/28 07:56:46;;;;;;;;;;;23.40;99.90;;;;;;4952368;28;19933;-79
2021/06/28 07:59:18;;;;;;;;;;;23.40;99.90;;;;;;4935314;29;19927;-79
2021/06/28 08:01:49;;;;;;;;;;;23.50;99.90;;;;;;4920460;29;19926;-79
2021/06/28 08:04:16;;;;;;;;;;;23.60;99.90;;;;;;4919495;29;20394;-79
2021/06/28 08:06:48;;;;;;;;;;;23.70;99.90;;;;;;4920202;29;19927;-79
2021/06/28 08:09:20;;;;;;;;;;;23.80;99.90;;;;;;4935732;29;19926;-79
2021/06/28 08:11:47;;;;;;;;;;;23.80;99.90;;;;;;4935172;29;20416;-79
2021/06/28 08:14:19;;;;;;;;;;;24.00;99.90;;;;;;4935540;29;19927;-79
2021/06/28 08:16:51;;;;;;;;;;;24.10;99.90;;;;;;4920196;29;19942;-79
2021/06/28 08:19:18;;;;;;;;;;;24.20;99.90;;;;;;4951379;28;19933;-79
2021/06/28 08:21:45;;;;;;;;;;;24.30;99.90;;;;;;4935448;29;19930;-79
2021/06/28 08:24:17;;;;;;;;;;;24.50;99.90;;;;;;4920138;29;20279;-79
2021/06/28 08:26:51;;;;;;;;;;;24.50;99.90;;;;;;4934808;29;20274;-78
2021/06/28 08:29:23;;;;;;;;;;;24.70;99.90;;;;;;4935364;29;19937;-79
2021/06/28 08:31:55;;;;;;;;;;;24.70;99.90;;;;;;4920183;29;19926;-79
2021/06/28 08:34:23;;;;;;;;;;;24.80;99.90;;;;;;4935403;29;19934;-79
2021/06/28 08:36:54;;;;;;;;;;;24.90;99.90;;;;;;4920134;29;19927;-79
2021/06/28 08:39:28;;;;;;;;;;;25.00;99.90;;;;;;4919286;29;19966;-79
2021/06/28 08:41:55;;;;;;;;;;;25.10;99.90;;;;;;4920159;29;19934;-76
2021/06/28 08:44:23;;;;;;;;;;;25.20;99.90;;;;;;4919044;29;19966;-79
2021/06/28 08:46:57;;;;;;;;;;;25.20;99.90;;;;;;4952375;28;19931;-78
2021/06/28 08:49:24;;;;;;;;;;;25.30;99.90;;;;;;4919458;29;20447;-78
2021/06/28 08:51:51;;;;;;;;;;;25.40;99.90;;;;;;4934687;29;19969;-78
2021/06/28 08:54:18;;;;;;;;;;;25.50;99.90;;;;;;4934441;29;20029;-78
2021/06/28 08:56:50;;;;;;;;;;;25.60;99.90;;;;;;4951231;28;20010;-79
2021/06/28 08:59:17;;;;;;;;;;;25.70;99.90;;;;;;4919649;29;19927;-79
2021/06/28 09:01:44;;;;;;;;;;;25.70;99.90;;;;;;4918907;29;19937;-79
2021/06/28 09:04:11;;;;;;;;;;;25.80;99.90;;;;;;4919381;29;19931;-79
2021/06/28 09:06:44;;;;;;;;;;;25.90;99.90;;;;;;4951969;28;19927;-79
2021/06/28 09:09:18;;;;;;;;;;;26.00;99.90;;;;;;4934585;29;19926;-79
2021/06/28 09:11:47;;;;;;;;;;;26.20;99.90;;;;;;4919247;29;19927;-79
2021/06/28 09:14:15;;;;;;;;;;;26.30;99.90;;;;;;4918886;29;19926;-79
2021/06/28 09:16:44;;;;;;;;;;;26.40;99.90;;;;;;4934998;29;19969;-79
2021/06/28 09:19:17;;;;;;;;;;;26.50;99.90;;;;;;4919461;29;20328;-80
2021/06/28 09:21:52;;;;;;;;;;;26.60;99.90;;;;;;4918904;29;19986;-79
2021/06/28 09:24:38;;;;;;;;;;;26.70;99.90;;;;;;4919694;29;19930;-79
2021/06/28 09:27:09;;;;;;;;;;;26.80;99.90;;;;;;4934811;29;20038;-79
2021/06/28 09:29:43;;;;;;;;;;;26.90;99.90;;;;;;4919683;29;20416;-79
2021/06/28 09:32:11;;;;;;;;;;;27.00;99.90;;;;;;4934648;29;20392;-80
2021/06/28 09:34:39;;;;;;;;;;;27.00;99.90;;;;;;4935161;29;20378;-81
2021/06/28 09:37:10;;;;;;;;;;;27.10;99.90;;;;;;4934892;29;19927;-80
2021/06/28 09:39:39;;;;;;;;;;;27.10;99.90;;;;;;4934773;29;19982;-80
2021/06/28 09:42:06;;;;;;;;;;;27.20;99.90;;;;;;4919388;29;20477;-80
2021/06/28 09:44:33;;;;;;;;;;;27.30;99.90;;;;;;4935074;29;20025;-79
2021/06/28 09:47:06;;;;;;;;;;;27.40;99.90;;;;;;4935096;29;19927;-80
2021/06/28 09:49:33;;;;;;;;;;;27.50;99.90;;;;;;4934448;29;19954;-79
2021/06/28 09:52:05;;;;;;;;;;;27.60;99.90;;;;;;4939782;29;19927;-79
2021/06/28 09:54:34;;;;;;;;;;;27.80;99.90;;;;;;4948532;29;19927;-78
2021/06/28 09:57:00;;;;;;;;;;;27.90;99.90;;;;;;4934535;29;19927;-81
2021/06/28 09:59:37;;;;;;;;;;;28.00;99.90;;;;;;4936410;29;19958;-80
2021/06/28 10:02:24;;;;;;;;;;;28.10;99.90;;;;;;4948575;29;19970;-82
2021/06/28 10:05:01;;;;;;;;;;;28.10;99.90;;;;;;4952137;29;19933;-81
2021/06/28 10:07:34;;;;;;;;;;;28.10;99.90;;;;;;4935379;29;20394;-83
2021/06/28 10:10:04;;;;;;;;;;;28.20;99.90;;;;;;4950520;29;19926;-82
2021/06/28 10:12:30;;;;;;;;;;;28.40;99.90;;;;;;4935135;29;19927;-82
2021/06/28 10:15:04;;;;;;;;;;;28.40;99.90;;;;;;4952014;29;19927;-82
2021/06/28 10:17:36;;;;;;;;;;;28.50;99.90;;;;;;4970028;28;19933;-84
2021/06/28 10:20:04;;;;;;;;;;;28.60;99.90;;;;;;4938026;29;20309;-82
2021/06/28 10:22:31;;;;;;;;;;;28.60;99.90;;;;;;4937955;29;19962;-81
2021/06/28 10:24:59;;;;;;;;;;;28.70;99.90;;;;;;4952851;29;20449;-81
2021/06/28 10:27:30;;;;;;;;;;;28.70;99.90;;;;;;4938206;29;20001;-81
2021/06/28 10:29:57;;;;;;;;;;;28.80;99.90;;;;;;4938303;29;19927;-81
2021/06/28 10:32:28;;;;;;;;;;;28.80;99.90;;;;;;4952510;29;20338;-81
2021/06/28 10:34:55;;;;;;;;;;;28.90;99.90;;;;;;4967381;28;19927;-82
2021/06/28 10:37:37;;;;;;;;;;;29.00;99.90;;;;;;4951067;29;20291;-82
2021/06/28 10:40:08;;;;;;;;;;;29.00;99.90;;;;;;4951134;29;20309;-82
2021/06/28 10:42:42;;;;;;;;;;;29.10;98.50;;;;;;4965012;28;20025;-81
2021/06/28 10:45:15;;;;;;;;;;;29.20;99.20;;;;;;4946639;29;20033;-81
2021/06/28 10:48:06;;;;;;;;;;;29.30;98.90;;;;;;4963339;28;19972;-82
2021/06/28 10:51:06;;;;;;;;;;;29.30;96.00;;;;;;4948681;29;19934;-82
2021/06/28 10:53:38;;;;;;;;;;;29.40;96.40;;;;;;4918264;29;20290;-82
2021/06/28 10:56:27;;;;;;;;;;;29.40;95.10;;;;;;4945961;29;19982;-82
2021/06/28 10:59:03;;;;;;;;;;;29.50;96.90;;;;;;4961226;28;19926;-82
2021/06/28 11:01:36;;;;;;;;;;;29.60;94.60;;;;;;4930511;29;19950;-81
2021/06/28 11:04:04;;;;;;;;;;;29.70;96.10;;;;;;4946209;29;20354;-82
2021/06/28 11:06:31;;;;;;;;;;;29.80;96.50;;;;;;4946737;29;19965;-82
2021/06/28 11:09:05;;;;;;;;;;;29.80;93.30;;;;;;4930885;29;19927;-82
2021/06/28 11:11:44;;;;;;;;;;;29.90;94.90;;;;;;4939347;29;19958;-83
2021/06/28 11:14:20;;;;;;;;;;;29.90;94.00;;;;;;4938905;29;19931;-82
2021/06/28 11:17:07;;;;;;;;;;;30.10;93.60;;;;;;4922400;29;20096;-82
2021/06/28 11:19:51;;;;;;;;;;;30.10;92.80;;;;;;4937862;29;19926;-82
2021/06/28 11:22:27;;;;;;;;;;;30.10;95.60;;;;;;4921552;29;20019;-83
2021/06/28 11:25:11;;;;;;;;;;;30.30;93.20;;;;;;4937768;29;19931;-83
2021/06/28 11:27:58;;;;;;;;;;;30.30;94.00;;;;;;4937399;29;19931;-83
2021/06/28 11:30:26;;;;;;;;;;;30.40;93.20;;;;;;4938085;29;19969;-83
2021/06/28 11:32:59;;;;;;;;;;;30.60;93.60;;;;;;4938344;29;20313;-83
2021/06/28 11:35:40;;;;;;;;;;;30.60;91.40;;;;;;4969760;28;19927;-82
2021/06/28 11:38:15;;;;;;;;;;;30.70;92.60;;;;;;4937530;29;19981;-82
2021/06/28 11:40:43;;;;;;;;;;;30.80;91.20;;;;;;4921744;29;19966;-83
2021/06/28 11:43:10;;;;;;;;;;;30.90;87.10;;;;;;4937033;29;19927;-82
2021/06/28 11:45:47;;;;;;;;;;;30.90;90.40;;;;;;4937279;29;19931;-83
2021/06/28 11:48:38;;;;;;;;;;;30.90;90.40;;;;;;4937351;29;19927;-83
2021/06/28 11:51:15;;;;;;;;;;;30.90;88.80;;;;;;4921888;29;20025;-83
2021/06/28 11:53:42;;;;;;;;;;;31.00;90.30;;;;;;4936866;29;19962;-83
2021/06/28 11:56:18;;;;;;;;;;;31.10;88.20;;;;;;4921186;29;19927;-83
2021/06/28 11:59:15;;;;;;;;;;;31.10;85.70;;;;;;4936893;29;20025;-83
2021/06/28 12:01:43;;;;;;;;;;;31.20;85.90;;;;;;4924889;29;19973;-83
2021/06/28 12:04:16;;;;;;;;;;;31.20;86.30;;;;;;4936870;29;19933;-83
2021/06/28 12:06:43;;;;;;;;;;;31.20;82.90;;;;;;4936944;29;20490;-83
2021/06/28 12:09:17;;;;;;;;;;;31.30;81.00;;;;;;4921542;29;20363;-82
2021/06/28 12:11:53;;;;;;;;;;;31.30;78.80;;;;;;4936572;29;20025;-83
2021/06/28 12:14:39;;;;;;;;;;;31.40;82.40;;;;;;4920166;29;19926;-83
2021/06/28 12:17:07;;;;;;;;;;;31.50;80.70;;;;;;4952748;28;19977;-83
2021/06/28 12:19:35;;;;;;;;;;;31.60;75.40;;;;;;4920735;29;19988;-83
2021/06/28 12:22:17;;;;;;;;;;;31.70;79.30;;;;;;4936583;29;19926;-83
2021/06/28 12:24:46;;;;;;;;;;;31.80;80.40;;;;;;4921112;29;19927;-83
2021/06/28 12:27:20;;;;;;;;;;;31.90;79.10;;;;;;4953713;28;19933;-83
2021/06/28 12:29:48;;;;;;;;;;;31.80;78.10;;;;;;4937448;29;19954;-83
2021/06/28 12:32:16;;;;;;;;;;;31.90;79.30;;;;;;4936984;29;20429;-83
2021/06/28 12:34:49;;;;;;;;;;;32.00;77.70;;;;;;4921285;29;19927;-84
2021/06/28 12:37:20;;;;;;;;;;;32.10;77.30;;;;;;4952792;28;19927;-83
2021/06/28 12:39:47;;;;;;;;;;;32.10;75.40;;;;;;4936464;29;19980;-83
2021/06/28 12:42:15;;;;;;;;;;;32.20;70.40;;;;;;4920923;29;20050;-82
2021/06/28 12:44:42;;;;;;;;;;;32.30;69.60;;;;;;4920716;29;20025;-83
2021/06/28 12:47:09;;;;;;;;;;;32.40;71.40;;;;;;4972811;28;19927;-84
2021/06/28 12:49:36;;;;;;;;;;;32.50;71.70;;;;;;4927174;29;20377;-82
2021/06/28 12:52:22;;;;;;;;;;;32.60;71.60;;;;;;4940586;29;19927;-84
2021/06/28 12:54:59;;;;;;;;;;;32.60;70.10;;;;;;4926176;29;19931;-82
2021/06/28 12:57:25;;;;;;;;;;;32.70;72.10;;;;;;4940374;29;19969;-84
2021/06/28 12:59:52;;;;;;;;;;;32.80;68.20;;;;;;4926421;29;19981;-84
2021/06/28 13:02:32;;;;;;;;;;;32.90;66.10;;;;;;4926134;29;19927;-83
2021/06/28 13:05:03;;;;;;;;;;;33.00;69.10;;;;;;4941995;29;19926;-83
2021/06/28 13:07:29;;;;;;;;;;;33.00;68.10;;;;;;4943334;29;20381;-82
2021/06/28 13:09:58;;;;;;;;;;;32.90;66.20;;;;;;4926841;29;19977;-84
2021/06/28 13:12:25;;;;;;;;;;;32.80;64.50;;;;;;4926386;29;19974;-82
2021/06/28 13:15:12;;;;;;;;;;;32.80;63.60;;;;;;4942523;29;19927;-82
2021/06/28 13:17:38;;;;;;;;;;;32.70;63.40;;;;;;4926602;29;19927;-83
2021/06/28 13:20:15;;;;;;;;;;;32.80;63.70;;;;;;4941934;29;19937;-84
2021/06/28 13:22:41;;;;;;;;;;;32.90;63.50;;;;;;4942607;29;19926;-83
2021/06/28 13:25:14;;;;;;;;;;;33.10;64.30;;;;;;4929528;29;19927;-83
2021/06/28 13:27:41;;;;;;;;;;;33.20;63.30;;;;;;4949089;29;19935;-86
2021/06/28 13:30:17;;;;;;;;;;;33.50;63.70;;;;;;4947179;29;20397;-82
2021/06/28 13:32:50;;;;;;;;;;;33.70;66.60;;;;;;4944359;29;19930;-83
2021/06/28 13:35:29;;;;;;;;;;;33.90;61.10;;;;;;4942844;29;19978;-83
2021/06/28 13:38:13;;;;;;;;;;;33.90;58.80;;;;;;4920426;29;19931;-82
2021/06/28 13:40:44;;;;;;;;;;;34.00;59.50;;;;;;4933927;29;19935;-82
2021/06/28 13:43:17;;;;;;;;;;;33.90;58.90;;;;;;4939894;29;19927;-84
2021/06/28 13:45:49;;;;;;;;;;;33.90;59.10;;;;;;4912061;29;20469;-82
2021/06/28 13:48:27;;;;;;;;;;;34.00;62.50;;;;;;4910055;29;20458;-82
2021/06/28 13:50:54;;;;;;;;;;;34.00;59.20;;;;;;4925835;29;19966;-83
2021/06/28 13:53:22;;;;;;;;;;;33.90;59.40;;;;;;4924076;29;20446;-82
2021/06/28 13:55:50;;;;;;;;;;;33.80;60.60;;;;;;4924461;29;19962;-82
2021/06/28 13:58:21;;;;;;;;;;;33.70;59.60;;;;;;4924482;29;19993;-82
2021/06/28 14:00:48;;;;;;;;;;;33.80;60.00;;;;;;4925313;29;19927;-84
2021/06/28 14:03:20;;;;;;;;;;;34.00;60.20;;;;;;4925451;29;19990;-84
2021/06/28 14:05:47;;;;;;;;;;;33.90;57.80;;;;;;4925070;29;19970;-83
2021/06/28 14:08:15;;;;;;;;;;;33.80;60.80;;;;;;4925004;29;19991;-82
2021/06/28 14:10:42;;;;;;;;;;;33.70;57.90;;;;;;4924910;29;19982;-82
2021/06/28 14:13:14;;;;;;;;;;;33.70;59.50;;;;;;4910146;29;19927;-82
2021/06/28 14:15:41;;;;;;;;;;;33.70;57.90;;;;;;4925031;29;19978;-82
2021/06/28 14:18:08;;;;;;;;;;;33.90;59.10;;;;;;4926604;29;19955;-82
2021/06/28 14:20:40;;;;;;;;;;;33.90;58.10;;;;;;4911668;29;20469;-81
2021/06/28 14:23:11;;;;;;;;;;;33.80;59.80;;;;;;4910897;29;19961;-82
2021/06/28 14:25:38;;;;;;;;;;;33.50;60.90;;;;;;4926596;29;20025;-83
2021/06/28 14:28:05;;;;;;;;;;;33.40;61.20;;;;;;4925910;29;20021;-83
2021/06/28 14:30:32;;;;;;;;;;;33.20;59.30;;;;;;4924800;29;19962;-83
2021/06/28 14:32:58;;;;;;;;;;;33.00;58.30;;;;;;4924226;29;19958;-82
2021/06/28 14:35:27;;;;;;;;;;;33.00;59.20;;;;;;4923743;29;19970;-82